createdAt,value
2022-11-22T00:00:55.995Z,20.23
2022-11-22T00:03:24.065Z,17.77
2022-11-22T00:05:53.378Z,17.67
2022-11-22T00:10:50.529Z,17.30
2022-11-22T00:13:19.254Z,18.08
2022-11-22T00:15:47.277Z,17.58
2022-11-22T00:18:15.274Z,18.30
2022-11-22T00:20:43.218Z,15.20
2022-11-22T00:23:12.694Z,16.67
2022-11-22T00:25:40.692Z,15.38
2022-11-22T00:28:08.639Z,17.48
2022-11-22T00:30:36.626Z,16.85
2022-11-22T00:33:09.299Z,15.80
2022-11-22T00:35:50.187Z,17.05
2022-11-22T00:38:26.139Z,16.48
2022-11-22T00:40:57.101Z,17.52
2022-11-22T00:43:26.164Z,17.08
2022-11-22T00:45:57.040Z,16.98
2022-11-22T00:48:25.043Z,17.92
2022-11-22T00:50:53.173Z,15.80
2022-11-22T00:53:22.674Z,16.08
2022-11-22T00:55:51.072Z,14.32
2022-11-22T00:58:19.043Z,13.87
2022-11-22T01:00:47.859Z,14.15
2022-11-22T01:03:17.256Z,13.95
2022-11-22T01:05:45.244Z,13.57
2022-11-22T01:08:13.187Z,13.23
2022-11-22T01:10:42.578Z,12.35
2022-11-22T01:13:12.847Z,13.50
2022-11-22T01:15:41.192Z,10.73
2022-11-22T01:18:09.141Z,10.25
2022-11-22T01:20:37.137Z,11.05
2022-11-22T01:23:05.027Z,10.65
2022-11-22T01:25:33.019Z,10.85
2022-11-22T01:28:02.325Z,10.13
2022-11-22T01:32:58.017Z,9.73
2022-11-22T01:35:26.028Z,10.55
2022-11-22T01:37:54.066Z,10.40
2022-11-22T01:40:22.224Z,9.30
2022-11-22T01:42:53.800Z,9.30
2022-11-22T01:45:49.135Z,8.95
2022-11-22T01:48:27.508Z,8.82
2022-11-22T01:51:01.199Z,9.20
2022-11-22T01:53:34.324Z,9.50
2022-11-22T01:56:04.568Z,8.65
2022-11-22T01:58:35.357Z,9.23
2022-11-22T02:01:05.089Z,9.82
2022-11-22T02:03:35.958Z,9.85
2022-11-22T02:06:04.780Z,9.38
2022-11-22T02:08:40.199Z,9.82
2022-11-22T02:11:10.608Z,10.73
2022-11-22T02:13:43.694Z,10.98
2022-11-22T02:16:13.806Z,10.93
2022-11-22T02:18:41.987Z,10.55
2022-11-22T02:21:10.536Z,11.00
2022-11-22T02:23:48.812Z,10.85
2022-11-22T02:26:18.498Z,10.68
2022-11-22T02:28:46.634Z,10.70
2022-11-22T02:31:42.496Z,10.48
2022-11-22T02:34:10.944Z,9.75
2022-11-22T02:36:46.721Z,10.68
2022-11-22T02:39:19.179Z,9.93
2022-11-22T02:41:49.990Z,10.00
2022-11-22T02:44:18.947Z,10.38
2022-11-22T02:46:51.714Z,10.52
2022-11-22T02:49:20.463Z,10.23
2022-11-22T02:51:48.834Z,10.40
2022-11-22T02:54:17.149Z,9.83
2022-11-22T02:56:45.150Z,10.70
2022-11-22T02:59:14.935Z,10.85
2022-11-22T03:01:44.416Z,9.23
2022-11-22T03:04:24.595Z,10.00
2022-11-22T03:06:55.184Z,9.43
2022-11-22T03:09:23.557Z,11.23
2022-11-22T03:11:51.901Z,10.60
2022-11-22T03:14:21.658Z,9.40
2022-11-22T03:16:50.148Z,9.60
2022-11-22T03:19:18.116Z,10.30
2022-11-22T03:21:46.278Z,10.35
2022-11-22T03:24:14.655Z,10.40
2022-11-22T03:26:42.916Z,10.33
2022-11-22T03:29:10.941Z,10.68
2022-11-22T03:31:40.270Z,10.38
2022-11-22T03:34:08.807Z,10.50
2022-11-22T03:36:36.767Z,9.85
2022-11-22T03:39:05.084Z,10.52
2022-11-22T03:41:33.088Z,11.65
2022-11-22T03:44:01.069Z,11.70
2022-11-22T03:46:29.081Z,10.85
2022-11-22T03:48:58.415Z,10.73
2022-11-22T03:53:54.125Z,10.48
2022-11-22T03:56:22.958Z,10.60
2022-11-22T03:58:51.094Z,10.90
2022-11-22T04:01:19.158Z,10.80
2022-11-22T04:03:47.196Z,11.10
2022-11-22T04:06:16.595Z,10.20
2022-11-22T04:08:44.619Z,9.70
2022-11-22T04:11:12.691Z,9.45
2022-11-22T04:13:57.991Z,9.15
2022-11-22T04:16:25.976Z,9.27
2022-11-22T04:18:53.936Z,7.90
2022-11-22T04:21:33.991Z,8.98
2022-11-22T04:24:19.967Z,8.43
2022-11-22T04:26:49.077Z,8.85
2022-11-22T04:29:17.255Z,9.05
2022-11-22T04:32:03.015Z,8.88
2022-11-22T04:34:30.976Z,8.63
2022-11-22T04:37:00.949Z,7.78
2022-11-22T04:39:29.447Z,9.05
2022-11-22T04:42:11.995Z,9.13
2022-11-22T04:44:42.572Z,7.90
2022-11-22T04:47:11.376Z,7.75
2022-11-22T04:49:39.245Z,8.38
2022-11-22T04:52:30.072Z,8.70
2022-11-22T04:54:58.023Z,8.23
2022-11-22T04:57:25.947Z,8.73
2022-11-22T04:59:53.889Z,8.77
2022-11-22T05:02:21.808Z,9.00
2022-11-22T05:04:50.926Z,8.77
2022-11-22T05:07:20.495Z,8.85
2022-11-22T05:09:48.458Z,9.10
2022-11-22T05:12:16.408Z,8.20
2022-11-22T05:14:44.547Z,7.90
2022-11-22T05:17:13.518Z,8.43
2022-11-22T05:22:17.849Z,7.97
2022-11-22T05:24:46.239Z,7.78
2022-11-22T05:27:14.140Z,8.13
2022-11-22T05:29:42.116Z,7.68
2022-11-22T05:32:10.078Z,8.15
2022-11-22T05:34:38.019Z,8.00
2022-11-22T05:37:05.987Z,8.43
2022-11-22T05:39:34.002Z,8.75
2022-11-22T05:42:05.911Z,8.65
2022-11-22T05:44:34.138Z,7.85
2022-11-22T05:47:02.111Z,8.30
2022-11-22T05:49:30.490Z,8.57
2022-11-22T05:51:58.680Z,8.50
2022-11-22T05:54:26.695Z,8.70
2022-11-22T05:56:55.070Z,8.75
2022-11-22T05:59:24.470Z,7.57
2022-11-22T06:01:52.569Z,7.03
2022-11-22T06:04:20.627Z,7.95
2022-11-22T06:06:48.841Z,8.23
2022-11-22T06:09:16.892Z,7.45
2022-11-22T06:11:45.137Z,8.45
2022-11-22T06:14:13.245Z,7.70
2022-11-22T06:16:42.579Z,7.30
2022-11-22T06:21:38.461Z,6.72
2022-11-22T06:24:07.385Z,7.15
2022-11-22T06:26:39.236Z,7.53
2022-11-22T06:29:07.708Z,8.50
2022-11-22T06:31:35.640Z,9.27
2022-11-22T06:34:04.979Z,6.60
2022-11-22T06:39:02.102Z,6.20
2022-11-22T06:41:33.552Z,7.10
2022-11-22T06:44:06.036Z,7.25
2022-11-22T06:46:34.694Z,7.55
2022-11-22T06:49:04.793Z,6.60
2022-11-22T06:51:33.617Z,7.40
2022-11-22T06:54:01.624Z,5.88
2022-11-22T06:56:31.285Z,8.13
2022-11-22T06:59:02.664Z,7.38
2022-11-22T07:01:31.273Z,5.88
2022-11-22T07:04:00.203Z,7.15
2022-11-22T07:06:31.048Z,5.85
2022-11-22T07:09:00.727Z,6.50
2022-11-22T07:11:30.262Z,5.82
2022-11-22T07:14:05.435Z,6.15
2022-11-22T07:16:36.446Z,6.50
2022-11-22T07:19:04.979Z,6.00
2022-11-22T07:21:34.494Z,6.80
2022-11-22T07:24:02.463Z,6.35
2022-11-22T07:26:30.406Z,6.70
2022-11-22T07:28:58.801Z,6.63
2022-11-22T07:31:26.775Z,7.88
2022-11-22T07:33:57.625Z,6.88
2022-11-22T07:36:28.730Z,6.60
2022-11-22T07:38:58.676Z,6.78
2022-11-22T07:41:26.840Z,6.32
2022-11-22T07:43:55.716Z,6.40
2022-11-22T07:48:53.244Z,6.72
2022-11-22T07:51:21.325Z,6.67
2022-11-22T07:53:49.310Z,6.20
2022-11-22T07:56:19.175Z,6.60
2022-11-22T07:58:47.252Z,6.28
2022-11-22T08:01:17.719Z,6.50
2022-11-22T08:03:46.662Z,7.38
2022-11-22T08:06:16.051Z,6.20
2022-11-22T08:08:44.217Z,6.65
2022-11-22T08:11:12.921Z,6.35
2022-11-22T08:13:42.631Z,6.60
2022-11-22T08:16:12.671Z,7.40
2022-11-22T08:18:42.380Z,7.03
2022-11-22T08:21:11.950Z,5.72
2022-11-22T08:23:40.572Z,5.75
2022-11-22T08:26:10.263Z,6.68
2022-11-22T08:28:38.178Z,6.63
2022-11-22T08:31:12.125Z,5.75
2022-11-22T08:33:40.415Z,5.90
2022-11-22T08:36:09.465Z,5.40
2022-11-22T08:38:37.876Z,5.72
2022-11-22T08:41:07.854Z,6.32
2022-11-22T08:43:35.895Z,5.20
2022-11-22T08:46:04.249Z,5.00
2022-11-22T08:48:36.877Z,5.22
2022-11-22T08:51:08.477Z,5.18
2022-11-22T08:53:38.482Z,5.45
2022-11-22T08:56:09.674Z,4.65
2022-11-22T08:58:38.504Z,4.65
2022-11-22T09:01:07.359Z,4.82
2022-11-22T09:03:37.526Z,4.80
2022-11-22T09:09:08.427Z,4.45
2022-11-22T09:11:43.045Z,4.68
2022-11-22T09:14:10.986Z,4.20
2022-11-22T09:16:38.994Z,4.68
2022-11-22T09:19:08.373Z,4.60
2022-11-22T09:21:36.377Z,4.20
2022-11-22T09:24:04.607Z,3.80
2022-11-22T09:26:33.061Z,4.20
2022-11-22T09:29:01.020Z,4.30
2022-11-22T09:31:29.344Z,3.72
2022-11-22T09:33:57.246Z,4.07
2022-11-22T09:36:27.396Z,3.80
2022-11-22T09:38:56.184Z,4.63
2022-11-22T09:42:01.748Z,3.97
2022-11-22T09:44:40.727Z,4.68
2022-11-22T09:47:22.215Z,4.38
2022-11-22T09:49:59.479Z,3.90
2022-11-22T09:52:35.256Z,4.10
2022-11-22T09:55:09.961Z,4.47
2022-11-22T09:57:43.106Z,4.70
2022-11-22T10:00:20.765Z,4.53
2022-11-22T10:03:00.334Z,4.63
2022-11-22T10:05:33.502Z,4.65
2022-11-22T10:08:09.644Z,3.60
2022-11-22T10:10:42.241Z,4.50
2022-11-22T10:13:16.341Z,4.13
2022-11-22T10:15:53.051Z,3.92
2022-11-22T10:18:26.916Z,4.22
2022-11-22T10:20:55.087Z,4.47
2022-11-22T10:23:26.068Z,4.80
2022-11-22T10:25:59.017Z,4.78
2022-11-22T10:28:34.807Z,4.80
2022-11-22T10:31:10.317Z,4.18
2022-11-22T10:33:45.421Z,4.35
2022-11-22T10:36:32.477Z,4.50
2022-11-22T10:39:24.594Z,4.50
2022-11-22T10:42:06.843Z,4.78
2022-11-22T10:44:48.725Z,4.85
2022-11-22T10:47:34.852Z,4.90
2022-11-22T10:50:07.465Z,5.32
2022-11-22T10:52:44.670Z,5.40
2022-11-22T10:55:24.495Z,4.97
2022-11-22T10:58:05.591Z,5.57
2022-11-22T11:00:37.430Z,4.90
2022-11-22T11:03:20.967Z,5.47
2022-11-22T11:11:35.688Z,5.30
2022-11-22T11:14:09.896Z,5.68
2022-11-22T11:16:38.979Z,4.65
2022-11-22T11:21:42.149Z,4.80
2022-11-22T11:24:17.190Z,5.15
2022-11-22T11:26:54.691Z,5.15
2022-11-22T11:29:40.833Z,5.38
2022-11-22T11:32:12.470Z,5.40
2022-11-22T11:34:43.394Z,5.05
2022-11-22T11:37:22.571Z,4.90
2022-11-22T11:39:50.592Z,5.90
2022-11-22T11:42:32.245Z,5.40
2022-11-22T11:45:28.069Z,6.07
2022-11-22T11:47:56.087Z,5.47
2022-11-22T11:50:26.280Z,5.40
2022-11-22T11:52:56.499Z,5.50
2022-11-22T11:55:24.967Z,4.63
2022-11-22T11:57:55.071Z,6.22
2022-11-22T12:00:27.959Z,4.80
2022-11-22T12:03:01.700Z,5.22
2022-11-22T12:05:32.474Z,5.20
2022-11-22T12:08:02.031Z,4.80
2022-11-22T12:10:42.372Z,5.18
2022-11-22T12:13:22.291Z,5.32
2022-11-22T12:15:58.070Z,5.05
2022-11-22T12:18:38.354Z,4.70
2022-11-22T12:21:17.986Z,6.10
2022-11-22T12:23:52.001Z,4.75
2022-11-22T12:26:20.524Z,4.90
2022-11-22T12:28:50.674Z,5.25
2022-11-22T12:31:28.482Z,5.20
2022-11-22T12:33:59.990Z,5.10
2022-11-22T12:36:33.677Z,5.65
2022-11-22T12:39:04.277Z,5.50
2022-11-22T12:41:35.742Z,5.22
2022-11-22T12:44:08.494Z,4.53
2022-11-22T12:46:41.250Z,5.28
2022-11-22T12:49:16.532Z,5.60
2022-11-22T12:51:48.400Z,6.00
2022-11-22T12:54:19.744Z,5.70
2022-11-22T12:56:52.708Z,5.88
2022-11-22T12:59:30.705Z,5.55
2022-11-22T13:02:05.454Z,5.28
2022-11-22T13:04:40.125Z,6.15
2022-11-22T13:07:16.506Z,4.88
2022-11-22T13:09:52.635Z,5.97
2022-11-22T13:12:27.488Z,4.93
2022-11-22T13:14:58.856Z,5.20
2022-11-22T13:17:32.231Z,5.57
2022-11-22T13:20:07.034Z,5.47
2022-11-22T13:22:47.249Z,5.35
2022-11-22T13:25:38.935Z,5.05
2022-11-22T13:28:14.500Z,5.30
2022-11-22T13:31:18.250Z,4.57
2022-11-22T13:33:55.667Z,7.80
2022-11-22T13:36:39.184Z,5.38
2022-11-22T13:39:19.895Z,6.60
2022-11-22T13:42:04.438Z,7.03
2022-11-22T13:45:06.285Z,6.00
2022-11-22T13:47:43.028Z,4.75
2022-11-22T13:50:56.813Z,4.68
2022-11-22T13:53:33.243Z,4.57
2022-11-22T13:56:45.288Z,4.50
2022-11-22T13:59:19.031Z,4.72
2022-11-22T14:02:03.122Z,4.53
2022-11-22T14:04:44.485Z,4.15
2022-11-22T14:07:48.771Z,4.00
2022-11-22T14:10:40.258Z,4.25
2022-11-22T14:13:37.415Z,4.90
2022-11-22T14:16:19.054Z,4.60
2022-11-22T14:18:58.410Z,5.75
2022-11-22T14:21:48.219Z,7.82
2022-11-22T14:24:40.687Z,7.22
2022-11-22T14:27:23.684Z,6.13
2022-11-22T14:30:09.461Z,4.45
2022-11-22T14:32:50.650Z,6.05
2022-11-22T14:35:30.227Z,4.78
2022-11-22T14:38:06.931Z,5.65
2022-11-22T14:40:39.161Z,5.35
2022-11-22T14:43:33.697Z,5.22
2022-11-22T14:46:37.325Z,5.93
2022-11-22T14:49:12.115Z,5.47
2022-11-22T14:51:44.582Z,5.68
2022-11-22T14:54:23.492Z,5.63
2022-11-22T14:56:52.503Z,5.40
2022-11-22T14:59:51.204Z,6.25
2022-11-22T15:02:40.314Z,5.40
2022-11-22T15:09:10.282Z,5.95
2022-11-22T15:09:13.693Z,6.00
2022-11-22T15:11:28.470Z,8.10
2022-11-22T15:14:26.882Z,6.95
2022-11-22T15:57:34.341Z,5.18
2022-11-22T16:00:02.617Z,4.60
2022-11-22T16:02:40.990Z,5.13
2022-11-22T16:06:06.634Z,5.20
2022-11-22T16:07:59.275Z,5.55
2022-11-22T16:10:33.129Z,5.22
2022-11-22T16:13:12.427Z,6.97
2022-11-22T16:15:41.226Z,5.70
2022-11-22T16:18:15.945Z,5.40
2022-11-22T16:20:59.341Z,5.10
2022-11-22T16:23:28.396Z,4.80
2022-11-22T16:26:00.178Z,6.57
2022-11-22T16:28:31.526Z,6.07
2022-11-22T16:31:01.787Z,7.53
2022-11-22T16:33:31.640Z,5.28
2022-11-22T16:36:01.176Z,5.85
2022-11-22T16:38:29.971Z,6.00
2022-11-22T16:40:59.817Z,4.80
2022-11-22T16:43:34.323Z,4.93
2022-11-22T16:46:02.477Z,5.68
2022-11-22T16:48:33.200Z,5.63
2022-11-22T16:51:04.918Z,5.88
2022-11-22T16:53:41.061Z,6.18
2022-11-22T16:56:10.315Z,6.00
2022-11-22T16:58:38.285Z,6.30
2022-11-22T17:01:06.482Z,6.45
2022-11-22T17:03:39.439Z,5.65
2022-11-22T17:06:07.843Z,6.47
2022-11-22T17:08:35.769Z,6.13
2022-11-22T17:11:03.821Z,6.35
2022-11-22T17:13:31.845Z,6.25
2022-11-22T17:15:59.818Z,6.35
2022-11-22T17:18:27.775Z,5.63
2022-11-22T17:20:57.112Z,6.32
2022-11-22T17:23:29.105Z,5.60
2022-11-22T17:25:57.142Z,6.38
2022-11-22T17:28:25.172Z,5.70
2022-11-22T17:30:53.337Z,6.18
2022-11-22T17:33:21.294Z,5.45
2022-11-22T17:35:49.306Z,6.80
2022-11-22T17:38:18.723Z,6.57
2022-11-22T17:40:47.194Z,5.53
2022-11-22T17:43:15.114Z,10.32
2022-11-22T17:45:43.682Z,5.20
2022-11-22T17:48:12.387Z,5.22
2022-11-22T17:50:40.586Z,4.70
2022-11-22T17:53:08.561Z,4.75
2022-11-22T17:56:08.537Z,5.05
2022-11-22T17:58:27.427Z,5.78
2022-11-22T18:01:04.325Z,4.82
2022-11-22T18:03:32.586Z,4.70
2022-11-22T18:06:00.930Z,5.20
2022-11-22T18:08:28.959Z,4.93
2022-11-22T18:11:00.781Z,5.50
2022-11-22T18:13:29.981Z,5.25
2022-11-22T18:21:20.256Z,4.93
2022-11-22T18:23:48.249Z,5.18
2022-11-22T18:31:54.479Z,5.10
2022-11-22T18:34:22.985Z,5.75
2022-11-22T18:36:56.500Z,5.15
2022-11-22T18:39:29.662Z,5.38
2022-11-22T18:46:55.097Z,5.53
2022-11-22T18:49:33.289Z,5.15
2022-11-22T18:52:01.665Z,5.72
2022-11-22T18:54:29.997Z,5.32
2022-11-22T18:56:59.688Z,5.53
2022-11-22T19:01:55.522Z,5.60
2022-11-22T19:04:23.471Z,5.60
2022-11-22T19:06:51.749Z,5.88
2022-11-22T19:09:19.766Z,5.17
2022-11-22T19:11:48.136Z,5.50
2022-11-22T19:14:17.506Z,5.68
2022-11-22T19:16:45.497Z,6.03
2022-11-22T19:19:13.699Z,6.00
2022-11-22T19:21:41.666Z,6.73
2022-11-22T19:24:09.849Z,6.72
2022-11-22T19:26:37.841Z,5.80
2022-11-22T19:29:05.791Z,6.78
2022-11-22T19:31:36.647Z,6.07
2022-11-22T19:34:04.644Z,6.28
2022-11-22T19:36:34.398Z,5.65
2022-11-22T19:39:03.673Z,5.75
2022-11-22T19:44:00.495Z,7.93
2022-11-22T19:46:29.346Z,7.28
2022-11-22T19:49:01.138Z,6.05
2022-11-22T19:51:30.888Z,7.25
2022-11-22T19:54:02.174Z,7.32
2022-11-22T19:56:33.141Z,7.38
2022-11-22T19:59:03.020Z,6.63
2022-11-22T20:01:32.847Z,7.85
2022-11-22T20:04:04.512Z,7.68
2022-11-22T20:06:33.173Z,8.63
2022-11-22T20:09:02.585Z,8.25
2022-11-22T20:11:30.616Z,7.93
2022-11-22T20:13:58.715Z,7.75
2022-11-22T20:16:28.191Z,7.75
2022-11-22T20:18:56.751Z,7.93
2022-11-22T20:21:27.291Z,8.45
2022-11-22T20:23:56.799Z,8.45
2022-11-22T20:26:25.639Z,8.77
2022-11-22T20:28:58.240Z,8.18
2022-11-22T20:31:27.586Z,8.35
2022-11-22T20:33:56.260Z,8.73
2022-11-22T20:36:27.542Z,9.20
2022-11-22T20:38:56.333Z,8.50
2022-11-22T20:41:26.035Z,9.23
2022-11-22T20:43:55.427Z,8.82
2022-11-22T20:46:25.046Z,8.95
2022-11-22T20:48:53.927Z,12.98
2022-11-22T20:51:24.274Z,10.35
2022-11-22T20:53:54.094Z,8.48
2022-11-22T20:56:22.141Z,8.55
2022-11-22T20:58:50.150Z,8.13
2022-11-22T21:01:19.948Z,8.40
2022-11-22T21:03:48.619Z,8.52
2022-11-22T21:06:20.848Z,7.93
2022-11-22T21:08:49.028Z,7.40
2022-11-22T21:11:20.047Z,7.30
2022-11-22T21:13:48.653Z,8.00
2022-11-22T21:16:23.844Z,6.72
2022-11-22T21:18:53.191Z,6.80
2022-11-22T21:21:23.858Z,6.85
2022-11-22T21:23:53.779Z,6.88
2022-11-22T21:26:23.853Z,6.35
2022-11-22T21:28:52.705Z,6.63
2022-11-22T21:31:21.985Z,5.38
2022-11-22T21:36:18.836Z,4.85
2022-11-22T21:38:46.909Z,6.20
2022-11-22T21:41:38.683Z,5.80
2022-11-22T21:44:06.341Z,4.63
2022-11-22T21:46:34.358Z,4.68
2022-11-22T21:49:02.383Z,4.13
2022-11-22T21:51:30.381Z,4.28
2022-11-22T21:53:59.101Z,4.50
2022-11-22T21:56:27.528Z,3.80
2022-11-22T21:58:55.732Z,3.60
2022-11-22T22:01:26.114Z,3.70
2022-11-22T22:03:54.309Z,3.38
2022-11-22T22:06:22.703Z,3.83
2022-11-22T22:08:50.720Z,3.65
2022-11-22T22:11:18.773Z,3.47
2022-11-22T22:13:46.840Z,3.50
2022-11-22T22:16:19.076Z,3.00
2022-11-22T22:18:48.770Z,3.20
2022-11-22T22:21:18.137Z,3.95
2022-11-22T22:23:47.001Z,3.60
2022-11-22T22:26:17.028Z,2.85
2022-11-22T22:28:45.945Z,2.75
2022-11-22T22:31:17.496Z,2.72
2022-11-22T22:33:46.634Z,2.50
2022-11-22T22:38:44.025Z,2.40
2022-11-22T22:41:13.498Z,2.40
2022-11-22T22:43:43.217Z,2.63
2022-11-22T22:46:13.367Z,2.28
2022-11-22T22:48:41.713Z,2.35
2022-11-22T22:51:12.945Z,2.22
2022-11-22T22:53:43.547Z,2.10
2022-11-22T22:56:12.705Z,2.35
2022-11-22T23:01:09.522Z,2.58
2022-11-22T23:03:38.076Z,2.33
2022-11-22T23:06:07.978Z,2.25
2022-11-22T23:08:36.350Z,1.92
2022-11-22T23:11:07.001Z,2.58
2022-11-22T23:13:36.684Z,2.30
2022-11-22T23:16:04.961Z,2.42
2022-11-22T23:18:35.873Z,2.40
2022-11-22T23:21:06.147Z,2.47
2022-11-22T23:23:34.897Z,2.30
2022-11-22T23:26:03.923Z,2.53
2022-11-22T23:28:33.763Z,2.40
2022-11-22T23:31:06.381Z,2.53
2022-11-22T23:33:34.564Z,2.60
2022-11-22T23:36:04.406Z,2.97
2022-11-22T23:38:32.721Z,2.25
2022-11-22T23:41:01.097Z,3.00
2022-11-22T23:43:29.425Z,2.38
2022-11-22T23:45:59.541Z,2.63
2022-11-22T23:48:28.432Z,2.90
2022-11-22T23:50:56.854Z,3.00
2022-11-22T23:53:26.485Z,2.95
2022-11-22T23:55:54.730Z,2.92
2022-11-22T23:58:22.702Z,2.90
